Time;durP1;ratioP1;P1;durP2;ratioP2;P2;SDS_P1;SDS_P2;PMS_P1;PMS_P2;Temp;Humidity;BMP_temperature;BMP_pressure;BME280_temperature;BME280_humidity;BME280_pressure;Samples;Min_cycle;Max_cycle;Signal;HPM_P1;HPM_P2
2022/05/14 00:00:24;;;;;;;45.80;12.00;;;12.90;99.90;;;;;;5034631;28;20045;-65
2022/05/14 00:02:51;;;;;;;39.28;9.93;;;12.90;99.90;;;;;;5032728;28;20049;-66
2022/05/14 00:05:20;;;;;;;38.45;10.90;;;12.80;99.90;;;;;;5034508;28;20037;-66
2022/05/14 00:07:47;;;;;;;37.85;10.48;;;12.80;99.90;;;;;;5034637;28;20045;-67
2022/05/14 00:10:14;;;;;;;50.90;12.23;;;12.70;99.90;;;;;;5034595;28;20090;-65
2022/05/14 00:15:24;;;;;;;38.38;10.70;;;12.60;99.90;;;;;;5034122;28;20045;-64
2022/05/14 00:17:51;;;;;;;46.15;11.15;;;12.70;99.90;;;;;;5028586;28;20086;-64
2022/05/14 00:20:17;;;;;;;38.70;11.73;;;12.60;99.90;;;;;;5005329;28;20065;-64
2022/05/14 00:22:43;;;;;;;40.60;11.07;;;12.60;99.90;;;;;;4994743;28;20058;-65
2022/05/14 00:25:10;;;;;;;47.25;12.55;;;12.60;99.90;;;;;;4994953;28;20046;-64
2022/05/14 00:27:41;;;;;;;44.10;12.23;;;12.50;99.90;;;;;;4995120;28;20125;-64
2022/05/14 00:30:07;;;;;;;44.70;13.15;;;12.60;99.90;;;;;;4994732;28;20062;-65
2022/05/14 00:32:33;;;;;;;43.15;12.07;;;12.50;99.90;;;;;;5022231;28;20473;-67
2022/05/14 00:34:58;;;;;;;39.78;12.10;;;12.50;99.90;;;;;;5034456;28;20046;-67
2022/05/14 00:37:24;;;;;;;48.42;11.68;;;12.50;99.90;;;;;;5033530;28;20064;-65
2022/05/14 00:39:50;;;;;;;43.70;11.95;;;12.50;99.90;;;;;;5034643;28;20037;-65
2022/05/14 00:42:15;;;;;;;45.97;13.30;;;12.50;99.90;;;;;;5033413;28;20049;-65
2022/05/14 00:44:41;;;;;;;45.38;14.07;;;12.50;99.90;;;;;;5036461;28;20081;-66
2022/05/14 00:47:12;;;;;;;48.70;12.02;;;12.50;99.90;;;;;;5034872;28;20046;-65
2022/05/14 00:49:38;;;;;;;42.20;11.88;;;12.50;99.90;;;;;;5037671;28;20176;-65
2022/05/14 00:52:04;;;;;;;53.58;14.07;;;12.60;99.90;;;;;;5037670;28;20463;-65
2022/05/14 00:54:38;;;;;;;53.47;12.98;;;12.60;99.90;;;;;;5037322;28;20084;-65
2022/05/14 00:57:10;;;;;;;41.95;13.43;;;12.60;99.90;;;;;;5019991;28;20049;-67
2022/05/14 00:59:36;;;;;;;45.13;12.80;;;12.60;99.90;;;;;;5037489;28;20352;-66
2022/05/14 01:02:04;;;;;;;56.70;13.88;;;12.50;99.90;;;;;;5017514;28;20129;-65
2022/05/14 01:04:30;;;;;;;39.97;12.40;;;12.50;99.90;;;;;;5037386;28;20509;-66
2022/05/14 01:07:08;;;;;;;45.42;13.35;;;12.50;99.90;;;;;;5037833;28;20046;-66
2022/05/14 01:09:35;;;;;;;46.35;14.15;;;12.40;99.90;;;;;;5037352;28;20080;-65
2022/05/14 01:12:01;;;;;;;49.05;11.13;;;12.40;99.90;;;;;;5037310;28;20045;-67
2022/05/14 01:14:27;;;;;;;43.78;13.40;;;12.30;99.90;;;;;;5013834;28;20064;-65
2022/05/14 01:16:53;;;;;;;37.60;11.70;;;12.30;99.90;;;;;;5037102;28;20471;-65
2022/05/14 01:19:19;;;;;;;49.08;12.50;;;12.30;99.90;;;;;;5037141;28;20043;-65
2022/05/14 01:21:56;;;;;;;43.60;12.00;;;12.20;99.90;;;;;;5019869;28;20159;-65
2022/05/14 01:27:41;;;;;;;50.72;13.13;;;12.20;99.90;;;;;;5034217;28;20045;-64
2022/05/14 01:30:09;;;;;;;59.63;13.52;;;12.20;99.90;;;;;;5017168;28;20550;-66
2022/05/14 01:32:34;;;;;;;40.55;12.68;;;12.10;99.90;;;;;;5017118;28;20060;-67
2022/05/14 01:35:00;;;;;;;46.53;12.40;;;12.10;99.90;;;;;;5017205;28;20442;-65
2022/05/14 01:37:26;;;;;;;43.28;13.15;;;12.00;99.90;;;;;;5017176;28;20046;-64
2022/05/14 01:39:52;;;;;;;48.53;14.52;;;12.00;99.90;;;;;;5017020;28;20133;-66
2022/05/14 01:42:18;;;;;;;42.80;13.43;;;11.90;99.90;;;;;;5016088;28;20058;-65
2022/05/14 01:44:44;;;;;;;55.42;14.00;;;11.90;99.90;;;;;;5025473;28;20592;-65
2022/05/14 01:47:10;;;;;;;51.22;13.98;;;11.90;99.90;;;;;;4997111;28;20137;-65
2022/05/14 01:49:37;;;;;;;59.58;13.75;;;11.90;99.90;;;;;;4997252;28;20046;-66
2022/05/14 01:52:03;;;;;;;49.45;13.57;;;11.90;99.90;;;;;;4997133;28;20109;-65
2022/05/14 01:54:28;;;;;;;48.80;12.82;;;11.90;99.90;;;;;;4997092;28;20100;-65
2022/05/14 01:56:54;;;;;;;50.20;13.68;;;11.90;99.90;;;;;;4996561;28;20137;-64
2022/05/14 01:59:19;;;;;;;45.20;12.88;;;11.80;99.90;;;;;;5015876;28;20176;-65
2022/05/14 02:01:46;;;;;;;51.58;13.73;;;11.80;99.90;;;;;;5016539;28;20042;-64
2022/05/14 02:04:14;;;;;;;45.55;12.18;;;11.80;99.90;;;;;;5016571;28;20045;-66
2022/05/14 02:06:41;;;;;;;48.72;12.63;;;11.80;99.90;;;;;;5016211;28;20053;-65
2022/05/14 02:09:09;;;;;;;45.60;15.10;;;11.80;99.90;;;;;;5016436;28;20052;-66
2022/05/14 02:11:36;;;;;;;51.97;13.85;;;11.70;99.90;;;;;;5022896;28;20534;-65
2022/05/14 02:14:02;;;;;;;49.55;13.60;;;11.80;99.90;;;;;;5018756;28;20057;-65
2022/05/14 02:16:27;;;;;;;49.38;13.77;;;11.70;99.90;;;;;;5036047;28;20367;-65
2022/05/14 02:18:53;;;;;;;46.55;13.70;;;11.70;99.90;;;;;;5035967;28;20045;-65
2022/05/14 02:21:20;;;;;;;43.78;13.27;;;11.70;99.90;;;;;;5035982;28;20045;-66
2022/05/14 02:23:47;;;;;;;42.47;13.70;;;11.60;99.90;;;;;;5035613;28;20452;-66
2022/05/14 02:26:13;;;;;;;45.80;12.50;;;11.60;99.90;;;;;;5012401;28;20052;-65
2022/05/14 02:28:40;;;;;;;51.35;12.90;;;11.60;99.90;;;;;;5028581;28;20132;-66
2022/05/14 02:31:06;;;;;;;51.03;13.80;;;11.60;99.90;;;;;;5035957;28;20159;-65
2022/05/14 02:33:31;;;;;;;45.33;13.13;;;11.50;99.90;;;;;;5035863;28;20460;-64
2022/05/14 02:35:57;;;;;;;55.53;13.95;;;11.40;99.90;;;;;;5035760;28;20056;-66
2022/05/14 02:38:24;;;;;;;42.97;13.32;;;11.40;99.90;;;;;;5033436;28;20080;-65
2022/05/14 02:40:50;;;;;;;45.25;13.95;;;11.40;99.90;;;;;;5035559;28;20124;-66
2022/05/14 02:43:16;;;;;;;49.00;14.00;;;11.30;99.90;;;;;;5035935;28;20137;-66
2022/05/14 02:45:42;;;;;;;46.83;14.50;;;11.30;99.90;;;;;;5035328;28;20041;-65
2022/05/14 02:48:10;;;;;;;48.97;14.45;;;11.20;99.90;;;;;;5035482;28;20057;-66
2022/05/14 02:50:35;;;;;;;51.33;15.23;;;11.20;99.90;;;;;;5037199;28;20110;-65
2022/05/14 02:53:01;;;;;;;47.60;14.25;;;11.20;99.90;;;;;;5029411;28;20518;-65
2022/05/14 02:55:26;;;;;;;38.67;12.55;;;11.20;99.90;;;;;;5016090;28;20098;-66
2022/05/14 02:57:52;;;;;;;63.60;15.02;;;11.20;99.90;;;;;;5016399;28;20056;-65
2022/05/14 03:00:20;;;;;;;49.08;14.00;;;11.10;99.90;;;;;;5035274;28;20041;-67
2022/05/14 03:02:45;;;;;;;45.60;12.82;;;11.10;99.90;;;;;;5035126;28;20037;-65
2022/05/14 03:05:12;;;;;;;47.95;14.02;;;11.10;99.90;;;;;;5018255;28;20049;-67
2022/05/14 03:07:39;;;;;;;35.58;13.45;;;11.10;99.90;;;;;;5034206;28;20041;-66
2022/05/14 03:10:05;;;;;;;44.13;13.48;;;11.10;99.90;;;;;;5035312;28;20355;-66
2022/05/14 03:12:31;;;;;;;48.47;15.15;;;11.10;99.90;;;;;;5035136;28;20045;-66
2022/05/14 03:14:57;;;;;;;40.45;13.02;;;11.00;99.90;;;;;;5165019;22;22583;-67
2022/05/14 03:17:22;;;;;;;51.08;14.15;;;11.00;99.90;;;;;;5042677;28;20048;-64
2022/05/14 03:19:49;;;;;;;45.53;14.57;;;11.00;99.90;;;;;;5028498;28;20108;-66
2022/05/14 03:22:16;;;;;;;47.17;13.38;;;11.00;99.90;;;;;;5035094;28;20045;-68
2022/05/14 03:24:42;;;;;;;58.20;14.20;;;11.00;99.90;;;;;;5035169;28;20452;-68
2022/05/14 03:27:08;;;;;;;45.83;13.45;;;11.00;99.90;;;;;;5035023;28;20139;-68
2022/05/14 03:29:34;;;;;;;40.53;13.60;;;11.00;99.90;;;;;;5034691;28;20045;-66
2022/05/14 03:32:00;;;;;;;50.22;13.75;;;10.90;99.90;;;;;;5020374;28;20090;-65
2022/05/14 03:34:27;;;;;;;46.60;14.82;;;10.90;99.90;;;;;;5052966;28;20561;-65
2022/05/14 03:36:52;;;;;;;49.72;14.25;;;10.90;99.90;;;;;;5054686;28;20348;-68
2022/05/14 03:39:18;;;;;;;44.90;12.65;;;10.90;99.90;;;;;;5054511;28;20052;-66
2022/05/14 03:41:44;;;;;;;42.78;13.95;;;10.80;99.90;;;;;;5054862;28;20358;-66
2022/05/14 03:44:10;;;;;;;54.92;13.90;;;10.90;99.90;;;;;;5054372;28;20049;-65
2022/05/14 03:46:36;;;;;;;50.45;13.98;;;10.90;99.90;;;;;;5054240;28;20402;-67
2022/05/14 03:49:02;;;;;;;47.38;14.15;;;10.80;99.90;;;;;;5037299;28;20049;-64
2022/05/14 03:51:28;;;;;;;44.97;16.17;;;10.80;99.90;;;;;;5054476;28;20453;-65
2022/05/14 03:53:54;;;;;;;46.15;13.25;;;10.80;99.90;;;;;;5054555;28;20099;-66
2022/05/14 03:56:20;;;;;;;46.83;14.05;;;10.80;99.90;;;;;;5054321;28;20447;-65
2022/05/14 03:58:45;;;;;;;50.72;13.93;;;10.80;99.90;;;;;;5053851;28;20041;-65
2022/05/14 04:01:11;;;;;;;51.90;14.10;;;10.80;99.90;;;;;;5054140;28;20078;-65
2022/05/14 04:03:37;;;;;;;39.53;14.07;;;10.80;99.90;;;;;;5035905;28;20089;-66
2022/05/14 04:06:04;;;;;;;45.20;13.48;;;10.80;99.90;;;;;;5054383;28;20084;-65
2022/05/14 04:08:29;;;;;;;49.22;13.40;;;10.80;99.90;;;;;;5036581;28;20045;-66
2022/05/14 04:10:55;;;;;;;38.50;13.25;;;10.80;99.90;;;;;;5054314;28;20045;-68
2022/05/14 04:13:21;;;;;;;48.53;13.05;;;10.80;99.90;;;;;;5053848;28;20175;-65
2022/05/14 04:15:48;;;;;;;44.83;13.32;;;10.80;99.90;;;;;;5053914;28;20052;-65
2022/05/14 04:18:13;;;;;;;46.38;13.73;;;10.80;99.90;;;;;;5054007;28;20057;-65
2022/05/14 04:20:40;;;;;;;47.15;15.68;;;10.80;99.90;;;;;;5057905;28;20371;-66
2022/05/14 04:23:07;;;;;;;35.17;11.48;;;10.80;99.90;;;;;;5058105;28;20056;-65
2022/05/14 04:25:33;;;;;;;38.90;12.70;;;10.80;99.90;;;;;;5056381;28;20099;-65
2022/05/14 04:27:59;;;;;;;51.15;13.65;;;10.90;99.90;;;;;;5058079;28;20514;-65
2022/05/14 04:30:25;;;;;;;47.17;13.05;;;10.80;99.90;;;;;;5057915;28;20391;-67
2022/05/14 04:32:50;;;;;;;38.53;12.05;;;10.90;99.90;;;;;;5057981;28;20059;-65
2022/05/14 04:35:17;;;;;;;43.53;13.23;;;10.80;99.90;;;;;;5058033;28;20041;-65
2022/05/14 04:37:42;;;;;;;39.25;11.77;;;10.90;99.90;;;;;;5057825;28;20036;-65
2022/05/14 04:40:10;;;;;;;36.15;11.50;;;10.90;99.90;;;;;;5057096;28;20111;-65
2022/05/14 04:42:38;;;;;;;47.08;13.80;;;10.90;99.90;;;;;;5056809;28;20049;-66
2022/05/14 04:45:04;;;;;;;38.22;11.10;;;10.90;99.90;;;;;;5040536;28;20072;-66
2022/05/14 04:47:30;;;;;;;37.08;12.07;;;11.00;99.90;;;;;;5057851;28;20052;-66
2022/05/14 04:49:56;;;;;;;36.17;11.50;;;11.00;99.90;;;;;;5057845;28;20056;-66
2022/05/14 04:52:21;;;;;;;36.28;12.00;;;11.00;99.90;;;;;;5057754;28;20041;-66
2022/05/14 04:54:47;;;;;;;37.22;11.57;;;11.10;99.90;;;;;;5056669;28;20040;-66
2022/05/14 04:57:12;;;;;;;42.22;11.68;;;11.10;99.90;;;;;;5057669;28;20044;-66
2022/05/14 04:59:38;;;;;;;35.80;11.25;;;11.10;99.90;;;;;;5057351;28;20416;-66
2022/05/14 05:04:48;;;;;;;34.00;10.32;;;11.10;99.90;;;;;;5057471;28;20048;-66
2022/05/14 05:07:15;;;;;;;33.78;11.85;;;11.20;99.90;;;;;;5057426;28;20052;-65
2022/05/14 05:09:41;;;;;;;35.45;10.73;;;11.20;99.90;;;;;;5057337;28;20053;-66
2022/05/14 05:12:07;;;;;;;32.17;11.82;;;11.20;99.90;;;;;;5057192;28;20044;-66
2022/05/14 05:14:33;;;;;;;32.08;11.27;;;11.20;99.90;;;;;;5056808;28;20491;-65
2022/05/14 05:16:58;;;;;;;30.60;12.10;;;11.20;99.90;;;;;;5056635;28;20045;-67
2022/05/14 05:19:24;;;;;;;39.75;10.90;;;11.30;99.90;;;;;;5057325;28;20045;-65
2022/05/14 05:21:50;;;;;;;38.08;11.60;;;11.40;99.90;;;;;;5057296;28;20367;-67
2022/05/14 05:24:16;;;;;;;40.67;11.32;;;11.30;99.90;;;;;;5056971;28;20041;-66
2022/05/14 05:26:42;;;;;;;33.40;12.02;;;11.40;99.90;;;;;;5039329;28;20057;-66
2022/05/14 05:29:07;;;;;;;28.65;11.02;;;11.40;99.90;;;;;;5056197;28;20344;-67
2022/05/14 05:31:34;;;;;;;35.42;9.75;;;11.50;99.90;;;;;;5055836;28;20145;-66
2022/05/14 05:34:00;;;;;;;35.78;10.70;;;11.50;99.90;;;;;;5056774;28;20088;-65
2022/05/14 05:36:25;;;;;;;31.65;10.95;;;11.60;99.90;;;;;;5057108;28;20419;-65
2022/05/14 05:38:51;;;;;;;30.20;10.48;;;11.60;99.90;;;;;;5056303;28;20095;-67
2022/05/14 05:41:21;;;;;;;35.55;10.82;;;11.60;99.90;;;;;;5049108;28;20065;-67
2022/05/14 05:43:47;;;;;;;29.63;10.77;;;11.70;99.90;;;;;;5036773;28;20136;-67
2022/05/14 05:46:14;;;;;;;30.98;9.02;;;11.80;99.90;;;;;;5036855;28;20064;-66
2022/05/14 05:48:40;;;;;;;39.10;11.32;;;11.80;99.90;;;;;;5046732;28;20053;-66
2022/05/14 05:51:06;;;;;;;29.08;10.55;;;11.90;99.90;;;;;;5056543;28;20044;-66
2022/05/14 05:59:03;;;;;;;33.88;10.52;;;12.10;99.90;;;;;;5056286;28;19928;-68
2022/05/14 06:01:29;;;;;;;32.25;9.10;;;12.20;99.90;;;;;;5055811;28;20352;-66
2022/05/14 06:03:54;;;;;;;30.38;9.02;;;12.20;99.90;;;;;;5055807;28;20102;-66
2022/05/14 06:06:20;;;;;;;25.83;9.27;;;12.30;99.90;;;;;;5055734;28;20107;-65
2022/05/14 06:08:50;;;;;;;27.67;8.38;;;12.40;99.90;;;;;;5056085;28;20365;-66
2022/05/14 06:11:16;;;;;;;25.52;8.63;;;12.50;99.90;;;;;;5056334;28;20041;-65
2022/05/14 06:13:43;;;;;;;29.45;8.57;;;12.70;99.90;;;;;;5055027;28;20458;-66
2022/05/14 06:16:13;;;;;;;33.17;8.95;;;12.90;99.90;;;;;;5055188;28;20102;-67
2022/05/14 06:18:39;;;;;;;26.88;8.68;;;13.00;99.90;;;;;;5055778;28;20049;-66
2022/05/14 06:21:05;;;;;;;32.47;9.43;;;13.10;99.90;;;;;;5055898;28;20048;-66
2022/05/14 06:23:32;;;;;;;27.80;7.75;;;13.20;99.90;;;;;;5054565;28;20040;-68
2022/05/14 06:25:58;;;;;;;28.67;8.07;;;13.30;99.90;;;;;;5055793;28;20134;-66
2022/05/14 06:28:24;;;;;;;27.95;8.05;;;13.40;99.90;;;;;;5054064;28;20093;-66
2022/05/14 06:30:50;;;;;;;32.60;8.82;;;13.40;99.90;;;;;;5054608;28;20049;-67
2022/05/14 06:33:16;;;;;;;31.83;9.40;;;13.50;99.90;;;;;;5055346;28;20076;-67
2022/05/14 06:35:42;;;;;;;25.55;7.05;;;13.50;99.90;;;;;;5055614;28;20061;-65
2022/05/14 06:38:07;;;;;;;31.65;8.35;;;13.60;99.90;;;;;;5055913;28;20044;-65
2022/05/14 06:40:35;;;;;;;31.27;8.73;;;13.60;99.90;;;;;;5055402;28;20056;-65
2022/05/14 06:43:00;;;;;;;26.60;7.50;;;13.60;99.90;;;;;;5055459;28;20359;-65
2022/05/14 06:45:26;;;;;;;31.58;8.25;;;13.70;99.90;;;;;;5055075;28;20053;-64
2022/05/14 06:47:53;;;;;;;29.02;8.20;;;13.70;99.90;;;;;;5055251;28;20041;-66
2022/05/14 06:50:19;;;;;;;25.25;7.90;;;13.80;99.90;;;;;;5055477;28;20055;-65
2022/05/14 06:52:46;;;;;;;27.80;7.57;;;13.90;99.90;;;;;;5055286;28;20514;-65
2022/05/14 06:55:17;;;;;;;33.15;7.70;;;14.00;99.90;;;;;;5055442;28;20044;-66
2022/05/14 06:57:43;;;;;;;19.58;7.00;;;14.10;99.90;;;;;;5055415;28;20529;-66
2022/05/14 07:00:09;;;;;;;28.42;7.65;;;14.20;99.90;;;;;;5055064;28;20051;-66
2022/05/14 07:02:35;;;;;;;22.65;6.30;;;14.30;99.90;;;;;;5054714;28;20076;-66
2022/05/14 07:07:47;;;;;;;25.13;6.65;;;14.40;99.90;;;;;;5055061;28;20045;-65
2022/05/14 07:10:13;;;;;;;26.38;7.53;;;14.30;99.90;;;;;;5055098;28;20045;-65
2022/05/14 07:12:39;;;;;;;17.08;6.13;;;14.50;99.90;;;;;;5055074;28;20388;-66
2022/05/14 07:15:06;;;;;;;21.33;6.38;;;14.50;99.90;;;;;;5054021;28;20100;-65
2022/05/14 07:17:32;;;;;;;26.25;6.55;;;14.50;99.90;;;;;;5036846;28;20052;-67
2022/05/14 07:19:57;;;;;;;22.20;6.90;;;14.60;99.90;;;;;;5054920;28;20053;-66
2022/05/14 07:22:23;;;;;;;23.33;7.00;;;14.60;99.90;;;;;;5054673;28;20060;-67
2022/05/14 07:24:48;;;;;;;18.45;5.93;;;14.70;99.90;;;;;;5054700;28;20459;-67
2022/05/14 07:27:14;;;;;;;31.30;7.32;;;14.70;99.90;;;;;;5054553;28;20047;-66
2022/05/14 07:29:42;;;;;;;20.48;6.88;;;14.70;99.90;;;;;;5054262;28;20079;-66
2022/05/14 07:32:13;;;;;;;24.25;6.45;;;14.80;99.90;;;;;;5054733;28;20103;-65
2022/05/14 07:34:39;;;;;;;25.25;6.93;;;14.90;99.90;;;;;;5054587;28;20049;-64
2022/05/14 07:37:33;;;;;;;25.48;7.55;;;15.00;99.90;;;;;;5037369;28;20056;-67
2022/05/14 07:40:03;;;;;;;23.50;6.38;;;15.00;99.90;;;;;;5054551;28;20053;-66
2022/05/14 07:42:43;;;;;;;28.80;7.78;;;15.00;99.90;;;;;;5054686;28;20080;-66
2022/05/14 07:45:12;;;;;;;21.02;6.45;;;15.20;99.90;;;;;;5035330;28;20049;-66
2022/05/14 07:47:38;;;;;;;27.27;8.02;;;15.20;99.90;;;;;;5054382;28;20340;-67
2022/05/14 07:50:06;;;;;;;27.58;5.93;;;15.30;99.90;;;;;;5053587;28;20418;-66
2022/05/14 07:52:31;;;;;;;23.02;6.85;;;15.30;99.90;;;;;;5054489;28;20045;-66
2022/05/14 07:54:57;;;;;;;24.58;6.55;;;15.40;99.90;;;;;;5057960;28;20083;-66
2022/05/14 07:57:22;;;;;;;27.88;7.70;;;15.50;99.90;;;;;;5058604;28;20045;-65
2022/05/14 07:59:48;;;;;;;23.67;7.00;;;15.50;99.90;;;;;;5058414;28;20045;-65
2022/05/14 08:02:23;;;;;;;21.23;6.93;;;15.60;99.90;;;;;;5041191;28;20064;-66
2022/05/14 08:04:49;;;;;;;29.73;7.78;;;15.50;99.90;;;;;;5057747;28;20363;-65
2022/05/14 08:07:15;;;;;;;25.70;7.68;;;15.60;99.90;;;;;;5058415;28;20079;-67
2022/05/14 08:09:40;;;;;;;29.52;7.50;;;15.50;99.90;;;;;;5057094;28;20120;-66
2022/05/14 08:12:06;;;;;;;26.02;7.30;;;15.50;99.90;;;;;;5057361;28;20049;-65
2022/05/14 08:14:33;;;;;;;30.08;7.22;;;15.50;99.90;;;;;;5057860;28;20371;-66
2022/05/14 08:16:59;;;;;;;21.48;6.32;;;15.50;99.90;;;;;;5058410;28;20150;-65
2022/05/14 08:19:25;;;;;;;26.50;7.38;;;15.60;99.90;;;;;;5057757;28;20457;-65
2022/05/14 08:24:34;;;;;;;20.23;6.70;;;15.80;99.90;;;;;;5057159;28;20451;-68
2022/05/14 08:27:05;;;;;;;32.95;7.63;;;15.90;99.90;;;;;;5058327;28;20045;-67
2022/05/14 08:29:32;;;;;;;25.27;6.75;;;15.90;99.90;;;;;;5058003;28;20049;-68
2022/05/14 08:31:57;;;;;;;24.38;8.15;;;16.00;99.90;;;;;;5056340;28;20072;-68
2022/05/14 08:34:23;;;;;;;26.48;7.22;;;16.10;99.90;;;;;;5057889;28;20455;-67
2022/05/14 08:36:48;;;;;;;24.17;6.38;;;16.10;99.90;;;;;;5040469;28;20477;-68
2022/05/14 08:39:16;;;;;;;30.75;7.07;;;16.10;99.90;;;;;;5057829;28;20068;-67
2022/05/14 08:41:46;;;;;;;24.08;7.20;;;16.10;99.90;;;;;;5057954;28;20045;-69
2022/05/14 08:44:17;;;;;;;26.20;7.43;;;16.00;99.90;;;;;;5057659;28;20037;-68
2022/05/14 08:46:44;;;;;;;27.95;8.23;;;16.10;99.90;;;;;;5033051;28;20056;-65
2022/05/14 08:49:18;;;;;;;26.27;8.75;;;16.20;99.90;;;;;;5046493;28;20106;-67
2022/05/14 08:51:51;;;;;;;25.40;7.30;;;16.30;99.90;;;;;;5057723;28;20130;-67
2022/05/14 08:54:19;;;;;;;23.33;7.05;;;16.10;99.90;;;;;;5056847;28;20049;-65
2022/05/14 08:57:09;;;;;;;22.17;6.30;;;16.20;99.90;;;;;;5042899;28;20423;-67
2022/05/14 08:59:46;;;;;;;26.27;8.07;;;16.30;99.90;;;;;;5057357;28;20088;-66
2022/05/14 09:02:29;;;;;;;30.17;7.75;;;16.40;99.90;;;;;;5057354;28;20045;-66
2022/05/14 09:04:58;;;;;;;27.23;7.05;;;16.30;99.90;;;;;;5050046;28;20240;-67
2022/05/14 09:07:23;;;;;;;24.08;8.10;;;16.40;99.90;;;;;;5053576;28;20064;-67
2022/05/14 09:09:51;;;;;;;28.75;7.65;;;16.40;99.90;;;;;;5057502;28;20346;-67
2022/05/14 09:12:22;;;;;;;27.73;7.70;;;16.40;99.90;;;;;;5057169;28;20132;-68
2022/05/14 09:14:54;;;;;;;31.15;8.15;;;16.50;99.90;;;;;;5056850;28;20128;-67
2022/05/14 09:17:22;;;;;;;28.90;9.60;;;16.50;99.90;;;;;;5057032;28;20052;-69
2022/05/14 09:19:52;;;;;;;26.55;8.00;;;16.60;99.90;;;;;;5056707;28;20049;-70
2022/05/14 09:22:29;;;;;;;26.83;8.02;;;16.60;99.90;;;;;;5056577;28;20049;-69
2022/05/14 09:25:20;;;;;;;25.45;7.60;;;16.80;99.90;;;;;;5057198;28;20348;-68
2022/05/14 09:27:52;;;;;;;27.20;8.52;;;16.80;99.90;;;;;;5056883;28;20045;-74
2022/05/14 09:30:39;;;;;;;21.42;7.30;;;16.70;99.90;;;;;;5053168;28;20048;-71
2022/05/14 09:33:08;;;;;;;33.28;8.35;;;16.70;99.90;;;;;;5054448;28;20085;-73
2022/05/14 09:35:35;;;;;;;27.90;7.32;;;16.90;99.90;;;;;;5062315;28;20044;-76
2022/05/14 09:38:18;;;;;;;30.17;8.15;;;16.70;99.90;;;;;;5061839;28;20047;-69
2022/05/14 09:40:44;;;;;;;26.45;8.00;;;16.70;99.90;;;;;;5062398;28;20129;-69
2022/05/14 09:43:16;;;;;;;33.53;7.68;;;16.80;99.90;;;;;;5062940;28;20044;-69
2022/05/14 09:45:55;;;;;;;24.85;7.40;;;16.80;99.90;;;;;;5036424;28;20045;-68
2022/05/14 09:48:23;;;;;;;32.22;8.63;;;16.80;99.90;;;;;;5036255;28;20037;-66
2022/05/14 09:50:55;;;;;;;27.77;7.88;;;16.80;99.90;;;;;;5036257;28;20348;-67
2022/05/14 09:53:36;;;;;;;22.45;7.18;;;16.70;99.90;;;;;;5036325;28;20049;-67
2022/05/14 09:56:33;;;;;;;27.50;8.13;;;16.80;99.90;;;;;;5036323;28;20474;-67
2022/05/14 09:59:04;;;;;;;28.90;7.32;;;17.00;99.90;;;;;;5039396;28;20589;-67
2022/05/14 10:01:51;;;;;;;28.73;8.05;;;17.10;99.90;;;;;;5055841;28;20060;-70
2022/05/14 10:04:29;;;;;;;23.92;7.43;;;17.30;99.90;;;;;;5063020;28;20110;-71
2022/05/14 10:07:00;;;;;;;28.83;7.15;;;17.20;99.90;;;;;;5060598;28;20106;-73
2022/05/14 10:09:45;;;;;;;26.73;8.02;;;17.00;99.90;;;;;;5060830;28;20059;-70
2022/05/14 10:12:27;;;;;;;28.63;7.47;;;17.00;99.90;;;;;;5060730;28;20055;-69
2022/05/14 10:15:08;;;;;;;29.60;7.95;;;17.10;99.90;;;;;;5058588;28;20540;-71
2022/05/14 10:18:00;;;;;;;24.25;7.55;;;17.10;99.90;;;;;;5053141;28;20206;-68
2022/05/14 10:20:48;;;;;;;25.73;8.15;;;17.30;99.90;;;;;;5052653;28;20041;-70
2022/05/14 10:29:33;;;;;;;27.20;8.43;;;17.40;99.90;;;;;;5054782;28;20049;-68
2022/05/14 10:32:05;;;;;;;35.53;7.93;;;17.40;99.90;;;;;;5041124;28;20378;-68
2022/05/14 10:35:05;;;;;;;36.78;7.60;;;17.50;99.90;;;;;;5055000;28;20510;-69
2022/05/14 10:37:40;;;;;;;22.85;7.07;;;17.60;99.90;;;;;;5055395;28;20049;-68
2022/05/14 10:40:08;;;;;;;26.42;7.32;;;17.70;99.90;;;;;;5055027;28;20079;-68
2022/05/14 10:42:59;;;;;;;27.92;7.38;;;17.60;99.90;;;;;;5054568;28;20372;-69
2022/05/14 10:45:43;;;;;;;26.48;6.85;;;17.80;99.90;;;;;;5055026;28;20048;-68
2022/05/14 10:48:32;;;;;;;25.27;7.07;;;17.90;99.90;;;;;;5053565;28;20091;-68
2022/05/14 10:51:00;;;;;;;29.10;7.35;;;17.60;99.90;;;;;;5060054;28;20373;-67
2022/05/14 10:53:26;;;;;;;26.83;7.55;;;17.50;99.90;;;;;;5055152;28;20049;-68
2022/05/14 10:56:13;;;;;;;30.85;7.10;;;17.80;99.90;;;;;;5041143;28;20060;-67
2022/05/14 10:59:01;;;;;;;25.88;7.68;;;17.70;99.90;;;;;;5055234;28;20045;-67
2022/05/14 11:01:59;;;;;;;29.30;8.15;;;17.80;99.90;;;;;;5055010;28;20474;-67
2022/05/14 11:04:31;;;;;;;26.58;6.93;;;17.90;99.90;;;;;;5054944;28;20056;-68
2022/05/14 11:07:06;;;;;;;20.30;7.72;;;18.10;99.90;;;;;;5054268;28;20045;-68
2022/05/14 11:09:42;;;;;;;34.15;7.82;;;18.10;99.90;;;;;;5054944;28;20033;-67
2022/05/14 11:12:31;;;;;;;25.33;6.93;;;17.90;99.90;;;;;;5055408;28;20044;-68
2022/05/14 11:14:59;;;;;;;28.15;8.02;;;18.20;99.90;;;;;;5054089;28;20056;-68
2022/05/14 11:17:28;;;;;;;23.77;7.45;;;18.50;99.90;;;;;;5037269;28;20383;-67
2022/05/14 11:20:13;;;;;;;27.48;7.80;;;18.50;99.90;;;;;;5037363;28;20083;-68
2022/05/14 11:22:39;;;;;;;;;;;18.50;99.90;;;;;;5051797;28;20085;-69
2022/05/14 11:25:17;;;;;;;23.48;6.72;;;18.20;99.90;;;;;;5053669;28;20250;-68
2022/05/14 11:28:23;;;;;;;24.20;7.68;;;18.10;99.90;;;;;;5054447;28;20045;-68
2022/05/14 11:30:55;;;;;;;28.02;7.63;;;18.50;99.90;;;;;;5053749;28;20037;-67
2022/05/14 11:33:26;;;;;;;26.88;8.00;;;18.60;99.90;;;;;;5054561;28;20041;-67
2022/05/14 11:36:04;;;;;;;26.10;7.93;;;18.70;99.90;;;;;;5053923;28;20060;-67
2022/05/14 11:38:39;;;;;;;25.65;8.05;;;18.60;99.90;;;;;;5052793;28;20053;-67
2022/05/14 11:41:08;;;;;;;25.63;7.97;;;18.50;99.90;;;;;;5053828;28;20413;-66
2022/05/14 11:43:38;;;;;;;24.65;7.68;;;18.30;99.90;;;;;;5054563;28;20041;-67
2022/05/14 11:46:43;;;;;;;24.23;8.55;;;18.50;99.90;;;;;;5054585;28;20052;-67
2022/05/14 11:49:34;;;;;;;23.85;7.03;;;18.40;99.90;;;;;;5054642;28;20041;-66
2022/05/14 11:52:30;;;;;;;22.92;8.02;;;18.90;99.90;;;;;;5053648;28;20048;-66
2022/05/14 11:55:15;;;;;;;26.42;7.75;;;19.10;99.90;;;;;;5054349;28;20111;-66
2022/05/14 11:58:16;;;;;;;23.98;7.28;;;19.10;99.90;;;;;;5054292;28;20040;-67
2022/05/14 12:00:44;;;;;;;24.13;7.22;;;19.40;99.90;;;;;;5012182;28;20119;-67
2022/05/14 12:03:15;;;;;;;23.63;7.35;;;19.60;99.90;;;;;;5054368;28;20045;-67
2022/05/14 12:05:53;;;;;;;28.42;7.72;;;19.60;99.90;;;;;;5053453;28;20041;-67
2022/05/14 12:08:19;;;;;;;22.08;7.68;;;19.80;99.90;;;;;;5054275;28;20092;-67
2022/05/14 12:10:54;;;;;;;29.50;8.13;;;19.90;99.90;;;;;;5054151;28;20085;-67
2022/05/14 12:13:41;;;;;;;29.05;7.85;;;20.10;99.90;;;;;;5054781;28;20048;-67
2022/05/14 12:16:07;;;;;;;24.73;7.55;;;19.80;99.90;;;;;;5054440;28;20184;-66
2022/05/14 12:18:34;;;;;;;26.75;7.20;;;19.90;99.90;;;;;;5053483;28;20056;-67
2022/05/14 12:21:05;;;;;;;21.17;7.22;;;20.10;99.90;;;;;;5046790;28;20103;-67
2022/05/14 12:23:37;;;;;;;24.88;7.65;;;20.00;99.90;;;;;;5035570;28;20051;-67
2022/05/14 12:26:20;;;;;;;26.25;8.57;;;20.30;99.90;;;;;;5054041;28;20055;-67
2022/05/14 12:28:47;;;;;;;25.48;7.68;;;20.50;99.90;;;;;;5054453;28;20051;-67
2022/05/14 12:34:08;;;;;;;29.27;7.55;;;20.80;99.90;;;;;;5054070;28;20060;-67
2022/05/14 12:36:46;;;;;;;21.35;7.07;;;20.40;99.90;;;;;;5054195;28;20044;-67
2022/05/14 12:39:27;;;;;;;26.35;7.18;;;20.60;99.90;;;;;;5053415;28;20328;-67
2022/05/14 12:41:58;;;;;;;21.67;7.50;;;20.80;99.90;;;;;;5057286;28;20132;-67
2022/05/14 12:44:31;;;;;;;26.10;7.53;;;20.80;99.90;;;;;;5054741;28;20419;-67
2022/05/14 12:46:59;;;;;;;27.00;7.17;;;20.80;99.90;;;;;;5057748;28;20052;-67
2022/05/14 12:49:33;;;;;;;30.30;8.15;;;21.40;99.90;;;;;;5058046;28;20601;-67
2022/05/14 12:52:06;;;;;;;22.88;7.65;;;21.40;99.90;;;;;;5057428;28;20049;-67
2022/05/14 12:54:33;;;;;;;24.97;7.90;;;21.30;99.90;;;;;;5056987;28;20084;-67
2022/05/14 12:57:02;;;;;;;27.30;7.63;;;21.40;99.90;;;;;;5057844;28;20136;-67
2022/05/14 12:59:27;;;;;;;26.27;7.88;;;21.70;99.90;;;;;;5057547;28;20102;-67
2022/05/14 13:01:59;;;;;;;23.73;7.82;;;21.50;99.90;;;;;;5057736;28;20045;-67
2022/05/14 13:04:33;;;;;;;20.15;6.78;;;21.60;99.50;;;;;;5057228;28;20049;-67
2022/05/14 13:07:01;;;;;;;17.05;7.15;;;21.50;98.90;;;;;;5056626;28;20094;-67
2022/05/14 13:09:28;;;;;;;25.67;7.47;;;21.50;99.90;;;;;;5057363;28;20037;-67
2022/05/14 13:11:56;;;;;;;24.90;6.82;;;21.60;99.90;;;;;;5057117;28;20064;-67
2022/05/14 13:14:28;;;;;;;18.85;7.10;;;22.10;99.90;;;;;;5057466;28;20049;-67